sensor_id;sensor_type;location;lat;lon;timestamp;P1;durP1;ratioP1;P2;durP2;ratioP2
47513;SDS011;33951;51.988;5.910;2022-11-15T00:01:15;73.75;;;37.05;;
47513;SDS011;33951;51.988;5.910;2022-11-15T00:03:53;61.63;;;33.42;;
47513;SDS011;33951;51.988;5.910;2022-11-15T00:06:19;66.03;;;32.97;;
47513;SDS011;33951;51.988;5.910;2022-11-15T00:08:45;82.13;;;37.50;;
47513;SDS011;33951;51.988;5.910;2022-11-15T00:11:11;63.80;;;31.98;;
47513;SDS011;33951;51.988;5.910;2022-11-15T00:13:37;81.57;;;37.40;;
47513;SDS011;33951;51.988;5.910;2022-11-15T00:16:03;66.13;;;33.95;;
47513;SDS011;33951;51.988;5.910;2022-11-15T00:18:35;78.57;;;37.13;;
47513;SDS011;33951;51.988;5.910;2022-11-15T00:21:06;57.55;;;30.10;;
47513;SDS011;33951;51.988;5.910;2022-11-15T00:23:55;62.55;;;32.17;;
47513;SDS011;33951;51.988;5.910;2022-11-15T00:26:33;57.88;;;32.42;;
47513;SDS011;33951;51.988;5.910;2022-11-15T00:29:06;67.57;;;34.00;;
47513;SDS011;33951;51.988;5.910;2022-11-15T00:31:35;55.25;;;31.38;;
47513;SDS011;33951;51.988;5.910;2022-11-15T00:34:00;54.85;;;31.83;;
47513;SDS011;33951;51.988;5.910;2022-11-15T00:36:26;59.55;;;28.67;;
47513;SDS011;33951;51.988;5.910;2022-11-15T00:38:52;75.00;;;34.70;;
47513;SDS011;33951;51.988;5.910;2022-11-15T00:41:18;54.47;;;30.23;;
47513;SDS011;33951;51.988;5.910;2022-11-15T00:43:43;70.40;;;35.78;;
47513;SDS011;33951;51.988;5.910;2022-11-15T00:46:11;55.40;;;28.42;;
47513;SDS011;33951;51.988;5.910;2022-11-15T00:48:40;53.42;;;30.98;;
47513;SDS011;33951;51.988;5.910;2022-11-15T00:51:06;51.20;;;29.50;;
47513;SDS011;33951;51.988;5.910;2022-11-15T00:53:34;42.60;;;27.02;;
47513;SDS011;33951;51.988;5.910;2022-11-15T00:56:02;49.08;;;30.05;;
47513;SDS011;33951;51.988;5.910;2022-11-15T06:01:17;40.67;;;28.10;;
47513;SDS011;33951;51.988;5.910;2022-11-15T06:03:42;44.42;;;29.83;;
47513;SDS011;33951;51.988;5.910;2022-11-15T06:06:08;43.40;;;27.52;;
47513;SDS011;33951;51.988;5.910;2022-11-15T06:08:33;32.17;;;25.50;;
47513;SDS011;33951;51.988;5.910;2022-11-15T06:11:05;33.42;;;24.00;;
47513;SDS011;33951;51.988;5.910;2022-11-15T06:13:31;37.58;;;26.40;;
47513;SDS011;33951;51.988;5.910;2022-11-15T06:15:57;36.03;;;26.95;;
47513;SDS011;33951;51.988;5.910;2022-11-15T06:18:23;30.98;;;24.40;;
47513;SDS011;33951;51.988;5.910;2022-11-15T06:20:48;39.50;;;27.13;;
47513;SDS011;33951;51.988;5.910;2022-11-15T06:23:14;32.70;;;24.52;;
47513;SDS011;33951;51.988;5.910;2022-11-15T06:25:40;28.13;;;23.23;;
47513;SDS011;33951;51.988;5.910;2022-11-15T06:28:05;33.08;;;22.77;;
47513;SDS011;33951;51.988;5.910;2022-11-15T06:30:31;29.10;;;22.35;;
47513;SDS011;33951;51.988;5.910;2022-11-15T06:32:58;26.95;;;22.58;;
47513;SDS011;33951;51.988;5.910;2022-11-15T06:35:25;25.92;;;21.58;;
47513;SDS011;33951;51.988;5.910;2022-11-15T06:37:51;25.15;;;21.67;;
47513;SDS011;33951;51.988;5.910;2022-11-15T06:40:16;34.17;;;22.25;;
47513;SDS011;33951;51.988;5.910;2022-11-15T06:42:42;27.58;;;21.27;;
47513;SDS011;33951;51.988;5.910;2022-11-15T06:45:07;26.42;;;21.02;;
47513;SDS011;33951;51.988;5.910;2022-11-15T06:47:35;29.63;;;20.67;;
47513;SDS011;33951;51.988;5.910;2022-11-15T06:50:12;26.70;;;22.02;;
47513;SDS011;33951;51.988;5.910;2022-11-15T06:52:37;27.38;;;21.73;;
47513;SDS011;33951;51.988;5.910;2022-11-15T06:55:03;26.63;;;20.90;;
47513;SDS011;33951;51.988;5.910;2022-11-15T06:57:29;29.75;;;21.58;;
47513;SDS011;33951;51.988;5.910;2022-11-15T06:59:54;28.08;;;20.63;;
47513;SDS011;33951;51.988;5.910;2022-11-15T07:02:20;33.05;;;23.05;;
47513;SDS011;33951;51.988;5.910;2022-11-15T07:04:45;24.15;;;18.38;;
47513;SDS011;33951;51.988;5.910;2022-11-15T07:07:11;29.40;;;21.63;;
47513;SDS011;33951;51.988;5.910;2022-11-15T07:09:36;27.92;;;21.67;;
47513;SDS011;33951;51.988;5.910;2022-11-15T07:12:02;25.20;;;21.15;;
47513;SDS011;33951;51.988;5.910;2022-11-15T07:14:28;31.45;;;24.63;;
47513;SDS011;33951;51.988;5.910;2022-11-15T07:16:53;32.45;;;25.35;;
47513;SDS011;33951;51.988;5.910;2022-11-15T07:19:19;31.95;;;26.02;;
47513;SDS011;33951;51.988;5.910;2022-11-15T07:21:44;32.85;;;26.63;;
47513;SDS011;33951;51.988;5.910;2022-11-15T07:24:10;36.95;;;27.35;;
47513;SDS011;33951;51.988;5.910;2022-11-15T07:26:36;31.27;;;23.70;;
47513;SDS011;33951;51.988;5.910;2022-11-15T07:29:01;39.33;;;28.80;;
47513;SDS011;33951;51.988;5.910;2022-11-15T07:31:27;31.63;;;24.00;;
47513;SDS011;33951;51.988;5.910;2022-11-15T07:33:52;42.67;;;30.35;;
47513;SDS011;33951;51.988;5.910;2022-11-15T07:36:18;34.28;;;25.52;;
47513;SDS011;33951;51.988;5.910;2022-11-15T07:38:43;41.88;;;29.35;;
47513;SDS011;33951;51.988;5.910;2022-11-15T07:41:09;43.53;;;30.88;;
47513;SDS011;33951;51.988;5.910;2022-11-15T07:43:34;31.60;;;24.08;;
47513;SDS011;33951;51.988;5.910;2022-11-15T07:46:04;41.63;;;26.88;;
47513;SDS011;33951;51.988;5.910;2022-11-15T07:48:32;45.45;;;30.33;;
47513;SDS011;33951;51.988;5.910;2022-11-15T07:50:58;32.80;;;25.02;;
47513;SDS011;33951;51.988;5.910;2022-11-15T07:53:23;33.70;;;25.08;;
47513;SDS011;33951;51.988;5.910;2022-11-15T07:55:49;34.50;;;24.05;;
47513;SDS011;33951;51.988;5.910;2022-11-15T07:58:14;32.95;;;23.92;;
47513;SDS011;33951;51.988;5.910;2022-11-15T08:00:40;42.40;;;27.77;;
47513;SDS011;33951;51.988;5.910;2022-11-15T08:03:09;30.85;;;23.67;;
47513;SDS011;33951;51.988;5.910;2022-11-15T08:05:37;41.53;;;28.55;;
47513;SDS011;33951;51.988;5.910;2022-11-15T08:08:04;41.05;;;28.42;;
47513;SDS011;33951;51.988;5.910;2022-11-15T08:10:30;36.83;;;28.42;;
47513;SDS011;33951;51.988;5.910;2022-11-15T08:13:03;40.15;;;28.83;;
47513;SDS011;33951;51.988;5.910;2022-11-15T08:15:31;46.40;;;30.08;;
47513;SDS011;33951;51.988;5.910;2022-11-15T08:17:58;49.28;;;30.65;;
47513;SDS011;33951;51.988;5.910;2022-11-15T08:20:27;36.72;;;28.10;;
47513;SDS011;33951;51.988;5.910;2022-11-15T08:22:55;30.33;;;24.55;;
47513;SDS011;33951;51.988;5.910;2022-11-15T08:25:24;41.70;;;27.07;;
47513;SDS011;33951;51.988;5.910;2022-11-15T08:27:53;36.43;;;26.00;;
47513;SDS011;33951;51.988;5.910;2022-11-15T08:30:20;30.60;;;23.30;;
47513;SDS011;33951;51.988;5.910;2022-11-15T08:32:46;39.22;;;26.98;;
47513;SDS011;33951;51.988;5.910;2022-11-15T08:35:12;30.77;;;24.20;;
47513;SDS011;33951;51.988;5.910;2022-11-15T08:37:37;28.80;;;22.20;;
47513;SDS011;33951;51.988;5.910;2022-11-15T08:40:03;27.63;;;22.52;;
47513;SDS011;33951;51.988;5.910;2022-11-15T08:42:30;26.58;;;21.20;;
47513;SDS011;33951;51.988;5.910;2022-11-15T08:44:55;29.55;;;22.15;;
47513;SDS011;33951;51.988;5.910;2022-11-15T08:47:21;33.35;;;23.10;;
47513;SDS011;33951;51.988;5.910;2022-11-15T08:49:47;41.17;;;28.00;;
47513;SDS011;33951;51.988;5.910;2022-11-15T08:52:13;34.97;;;24.83;;
47513;SDS011;33951;51.988;5.910;2022-11-15T08:54:39;40.65;;;26.55;;
47513;SDS011;33951;51.988;5.910;2022-11-15T08:57:04;36.95;;;24.13;;
47513;SDS011;33951;51.988;5.910;2022-11-15T08:59:30;32.60;;;24.35;;
47513;SDS011;33951;51.988;5.910;2022-11-15T09:01:56;30.83;;;23.00;;
47513;SDS011;33951;51.988;5.910;2022-11-15T09:04:22;34.45;;;22.33;;
47513;SDS011;33951;51.988;5.910;2022-11-15T09:06:47;33.80;;;24.55;;
47513;SDS011;33951;51.988;5.910;2022-11-15T09:09:13;33.70;;;21.98;;
47513;SDS011;33951;51.988;5.910;2022-11-15T09:11:39;29.95;;;21.30;;
47513;SDS011;33951;51.988;5.910;2022-11-15T09:14:05;32.65;;;21.73;;
47513;SDS011;33951;51.988;5.910;2022-11-15T09:16:30;26.40;;;21.02;;
47513;SDS011;33951;51.988;5.910;2022-11-15T09:18:56;27.38;;;18.90;;
47513;SDS011;33951;51.988;5.910;2022-11-15T09:21:22;30.05;;;19.55;;
47513;SDS011;33951;51.988;5.910;2022-11-15T09:23:50;27.35;;;19.45;;
47513;SDS011;33951;51.988;5.910;2022-11-15T09:26:17;26.50;;;17.63;;
47513;SDS011;33951;51.988;5.910;2022-11-15T09:28:45;23.88;;;16.95;;
47513;SDS011;33951;51.988;5.910;2022-11-15T09:31:11;22.13;;;15.45;;
47513;SDS011;33951;51.988;5.910;2022-11-15T09:33:36;17.63;;;14.40;;
47513;SDS011;33951;51.988;5.910;2022-11-15T09:36:06;24.10;;;15.98;;
47513;SDS011;33951;51.988;5.910;2022-11-15T09:38:33;24.23;;;16.45;;
47513;SDS011;33951;51.988;5.910;2022-11-15T09:43:44;19.00;;;15.23;;
47513;SDS011;33951;51.988;5.910;2022-11-15T09:49:08;17.83;;;14.05;;
47513;SDS011;33951;51.988;5.910;2022-11-15T09:51:39;20.52;;;14.82;;
47513;SDS011;33951;51.988;5.910;2022-11-15T09:57:09;17.35;;;12.20;;
47513;SDS011;33951;51.988;5.910;2022-11-15T10:05:25;21.10;;;14.02;;
47513;SDS011;33951;51.988;5.910;2022-11-15T10:10:27;15.63;;;11.43;;
47513;SDS011;33951;51.988;5.910;2022-11-15T10:12:59;14.82;;;11.93;;
47513;SDS011;33951;51.988;5.910;2022-11-15T10:15:25;14.45;;;10.70;;
47513;SDS011;33951;51.988;5.910;2022-11-15T10:20:21;14.73;;;9.68;;
47513;SDS011;33951;51.988;5.910;2022-11-15T10:22:50;10.15;;;8.50;;
47513;SDS011;33951;51.988;5.910;2022-11-15T10:25:25;12.13;;;7.70;;
47513;SDS011;33951;51.988;5.910;2022-11-15T10:27:57;10.48;;;7.13;;
47513;SDS011;33951;51.988;5.910;2022-11-15T10:30:46;12.02;;;7.65;;
47513;SDS011;33951;51.988;5.910;2022-11-15T10:41:20;9.15;;;6.03;;
47513;SDS011;33951;51.988;5.910;2022-11-15T10:44:06;6.75;;;5.35;;
47513;SDS011;33951;51.988;5.910;2022-11-15T10:46:39;10.57;;;5.63;;
47513;SDS011;33951;51.988;5.910;2022-11-15T10:51:58;5.95;;;4.15;;
47513;SDS011;33951;51.988;5.910;2022-11-15T10:57:16;3.83;;;3.33;;
47513;SDS011;33951;51.988;5.910;2022-11-15T10:59:51;7.60;;;3.67;;
47513;SDS011;33951;51.988;5.910;2022-11-15T11:02:30;9.68;;;4.25;;
47513;SDS011;33951;51.988;5.910;2022-11-15T11:05:31;7.72;;;3.83;;
47513;SDS011;33951;51.988;5.910;2022-11-15T11:10:55;7.95;;;3.28;;
47513;SDS011;33951;51.988;5.910;2022-11-15T11:13:23;4.55;;;2.60;;
47513;SDS011;33951;51.988;5.910;2022-11-15T11:15:52;4.15;;;2.78;;
47513;SDS011;33951;51.988;5.910;2022-11-15T11:18:49;8.50;;;2.75;;
47513;SDS011;33951;51.988;5.910;2022-11-15T11:30:14;7.32;;;2.55;;
47513;SDS011;33951;51.988;5.910;2022-11-15T11:33:07;4.50;;;2.25;;
47513;SDS011;33951;51.988;5.910;2022-11-15T11:41:09;4.10;;;2.33;;
47513;SDS011;33951;51.988;5.910;2022-11-15T11:43:51;6.15;;;1.88;;
47513;SDS011;33951;51.988;5.910;2022-11-15T11:49:38;3.85;;;1.95;;
47513;SDS011;33951;51.988;5.910;2022-11-15T11:54:58;3.45;;;1.80;;
47513;SDS011;33951;51.988;5.910;2022-11-15T12:00:51;5.70;;;2.88;;
47513;SDS011;33951;51.988;5.910;2022-11-15T12:06:17;5.53;;;2.45;;
47513;SDS011;33951;51.988;5.910;2022-11-15T12:08:58;4.05;;;2.55;;
47513;SDS011;33951;51.988;5.910;2022-11-15T12:17:29;19.13;;;8.93;;
47513;SDS011;33951;51.988;5.910;2022-11-15T12:19:57;5.47;;;2.10;;
47513;SDS011;33951;51.988;5.910;2022-11-15T12:22:38;7.43;;;2.20;;
47513;SDS011;33951;51.988;5.910;2022-11-15T12:25:14;4.75;;;2.00;;
47513;SDS011;33951;51.988;5.910;2022-11-15T12:30:49;7.07;;;2.35;;
47513;SDS011;33951;51.988;5.910;2022-11-15T12:36:04;4.93;;;1.77;;
47513;SDS011;33951;51.988;5.910;2022-11-15T12:39:00;3.78;;;1.67;;
47513;SDS011;33951;51.988;5.910;2022-11-15T12:41:34;6.93;;;1.75;;
47513;SDS011;33951;51.988;5.910;2022-11-15T12:44:01;3.33;;;2.35;;
47513;SDS011;33951;51.988;5.910;2022-11-15T12:49:07;7.25;;;2.28;;
47513;SDS011;33951;51.988;5.910;2022-11-15T12:59:50;6.03;;;1.55;;
47513;SDS011;33951;51.988;5.910;2022-11-15T13:02:18;6.80;;;1.65;;
47513;SDS011;33951;51.988;5.910;2022-11-15T13:04:46;3.53;;;1.55;;
47513;SDS011;33951;51.988;5.910;2022-11-15T13:07:56;3.85;;;1.50;;
47513;SDS011;33951;51.988;5.910;2022-11-15T13:17:43;3.65;;;1.50;;
47513;SDS011;33951;51.988;5.910;2022-11-15T13:22:44;6.97;;;1.60;;
47513;SDS011;33951;51.988;5.910;2022-11-15T13:30:51;4.35;;;1.70;;
47513;SDS011;33951;51.988;5.910;2022-11-15T13:33:27;4.05;;;2.00;;
47513;SDS011;33951;51.988;5.910;2022-11-15T13:36:03;4.93;;;1.27;;
47513;SDS011;33951;51.988;5.910;2022-11-15T13:38:54;6.50;;;1.98;;
47513;SDS011;33951;51.988;5.910;2022-11-15T13:41:21;5.60;;;2.28;;
47513;SDS011;33951;51.988;5.910;2022-11-15T13:43:49;6.70;;;2.00;;
47513;SDS011;33951;51.988;5.910;2022-11-15T13:46:20;5.85;;;1.80;;
47513;SDS011;33951;51.988;5.910;2022-11-15T13:48:52;3.90;;;2.08;;
47513;SDS011;33951;51.988;5.910;2022-11-15T13:51:33;4.10;;;1.83;;
47513;SDS011;33951;51.988;5.910;2022-11-15T13:54:25;6.72;;;2.45;;
47513;SDS011;33951;51.988;5.910;2022-11-15T13:59:34;6.43;;;2.10;;
47513;SDS011;33951;51.988;5.910;2022-11-15T14:02:15;3.88;;;1.85;;
47513;SDS011;33951;51.988;5.910;2022-11-15T14:04:54;6.47;;;2.00;;
47513;SDS011;33951;51.988;5.910;2022-11-15T14:07:23;2.75;;;1.70;;
47513;SDS011;33951;51.988;5.910;2022-11-15T14:09:51;6.25;;;2.47;;
47513;SDS011;33951;51.988;5.910;2022-11-15T14:12:24;6.07;;;2.50;;
47513;SDS011;33951;51.988;5.910;2022-11-15T14:14:52;6.68;;;2.40;;
47513;SDS011;33951;51.988;5.910;2022-11-15T14:19:52;6.97;;;2.42;;
47513;SDS011;33951;51.988;5.910;2022-11-15T14:22:19;6.53;;;3.22;;
47513;SDS011;33951;51.988;5.910;2022-11-15T14:24:47;6.22;;;3.42;;
47513;SDS011;33951;51.988;5.910;2022-11-15T14:27:31;7.35;;;3.83;;
47513;SDS011;33951;51.988;5.910;2022-11-15T14:29:57;6.55;;;3.97;;
47513;SDS011;33951;51.988;5.910;2022-11-15T14:34:55;10.45;;;5.30;;
47513;SDS011;33951;51.988;5.910;2022-11-15T14:37:22;11.27;;;5.45;;
47513;SDS011;33951;51.988;5.910;2022-11-15T14:39:49;9.43;;;4.30;;
47513;SDS011;33951;51.988;5.910;2022-11-15T14:42:16;8.07;;;3.60;;
47513;SDS011;33951;51.988;5.910;2022-11-15T14:44:42;7.72;;;3.80;;
47513;SDS011;33951;51.988;5.910;2022-11-15T14:47:07;10.43;;;3.50;;
47513;SDS011;33951;51.988;5.910;2022-11-15T14:49:33;6.32;;;3.40;;
47513;SDS011;33951;51.988;5.910;2022-11-15T14:51:59;6.07;;;3.35;;
47513;SDS011;33951;51.988;5.910;2022-11-15T14:54:24;9.35;;;2.67;;
47513;SDS011;33951;51.988;5.910;2022-11-15T14:56:50;6.15;;;2.55;;
47513;SDS011;33951;51.988;5.910;2022-11-15T14:59:15;4.47;;;2.25;;
47513;SDS011;33951;51.988;5.910;2022-11-15T15:01:41;5.35;;;2.47;;
47513;SDS011;33951;51.988;5.910;2022-11-15T15:04:08;13.20;;;2.30;;
47513;SDS011;33951;51.988;5.910;2022-11-15T15:06:35;5.93;;;1.88;;
47513;SDS011;33951;51.988;5.910;2022-11-15T15:09:00;3.13;;;2.25;;
47513;SDS011;33951;51.988;5.910;2022-11-15T15:11:27;4.05;;;2.10;;
47513;SDS011;33951;51.988;5.910;2022-11-15T15:13:55;4.40;;;2.00;;
47513;SDS011;33951;51.988;5.910;2022-11-15T15:16:22;5.03;;;1.92;;
47513;SDS011;33951;51.988;5.910;2022-11-15T15:18:49;4.18;;;1.60;;
47513;SDS011;33951;51.988;5.910;2022-11-15T15:21:25;4.50;;;2.28;;
47513;SDS011;33951;51.988;5.910;2022-11-15T15:23:56;3.65;;;1.92;;
47513;SDS011;33951;51.988;5.910;2022-11-15T15:26:22;6.75;;;2.50;;
47513;SDS011;33951;51.988;5.910;2022-11-15T15:28:48;13.82;;;10.02;;
47513;SDS011;33951;51.988;5.910;2022-11-15T15:31:16;78.90;;;51.65;;
47513;SDS011;33951;51.988;5.910;2022-11-15T15:33:42;7.75;;;3.72;;
47513;SDS011;33951;51.988;5.910;2022-11-15T15:36:11;6.07;;;2.30;;
47513;SDS011;33951;51.988;5.910;2022-11-15T15:38:38;5.82;;;2.55;;
47513;SDS011;33951;51.988;5.910;2022-11-15T15:41:09;6.00;;;2.05;;
47513;SDS011;33951;51.988;5.910;2022-11-15T15:43:36;5.30;;;2.20;;
47513;SDS011;33951;51.988;5.910;2022-11-15T15:46:02;3.13;;;1.98;;
47513;SDS011;33951;51.988;5.910;2022-11-15T15:48:27;4.43;;;2.17;;
47513;SDS011;33951;51.988;5.910;2022-11-15T15:50:53;4.00;;;1.92;;
47513;SDS011;33951;51.988;5.910;2022-11-15T15:53:18;7.28;;;2.75;;
47513;SDS011;33951;51.988;5.910;2022-11-15T15:55:44;6.25;;;2.38;;
47513;SDS011;33951;51.988;5.910;2022-11-15T15:58:10;8.13;;;2.33;;
47513;SDS011;33951;51.988;5.910;2022-11-15T16:00:35;6.97;;;2.65;;
47513;SDS011;33951;51.988;5.910;2022-11-15T16:03:02;5.00;;;2.47;;
47513;SDS011;33951;51.988;5.910;2022-11-15T16:05:28;7.03;;;2.78;;
47513;SDS011;33951;51.988;5.910;2022-11-15T16:07:54;7.13;;;2.67;;
47513;SDS011;33951;51.988;5.910;2022-11-15T16:10:23;6.80;;;2.80;;
47513;SDS011;33951;51.988;5.910;2022-11-15T16:12:51;6.90;;;3.38;;
47513;SDS011;33951;51.988;5.910;2022-11-15T16:15:17;6.55;;;2.65;;
47513;SDS011;33951;51.988;5.910;2022-11-15T16:17:47;9.77;;;2.80;;
47513;SDS011;33951;51.988;5.910;2022-11-15T16:20:23;5.90;;;3.10;;
47513;SDS011;33951;51.988;5.910;2022-11-15T16:22:54;5.63;;;2.63;;
47513;SDS011;33951;51.988;5.910;2022-11-15T16:25:20;6.03;;;2.47;;
47513;SDS011;33951;51.988;5.910;2022-11-15T16:27:45;5.40;;;2.58;;
47513;SDS011;33951;51.988;5.910;2022-11-15T16:30:15;7.75;;;3.08;;
47513;SDS011;33951;51.988;5.910;2022-11-15T16:32:42;7.53;;;2.90;;
47513;SDS011;33951;51.988;5.910;2022-11-15T16:35:11;5.57;;;2.50;;
47513;SDS011;33951;51.988;5.910;2022-11-15T16:37:37;8.15;;;3.50;;
47513;SDS011;33951;51.988;5.910;2022-11-15T16:40:16;6.80;;;2.42;;
47513;SDS011;33951;51.988;5.910;2022-11-15T16:42:54;10.55;;;3.20;;
47513;SDS011;33951;51.988;5.910;2022-11-15T16:45:21;8.30;;;2.80;;
47513;SDS011;33951;51.988;5.910;2022-11-15T16:47:47;6.40;;;2.42;;
47513;SDS011;33951;51.988;5.910;2022-11-15T16:52:52;4.32;;;2.55;;
47513;SDS011;33951;51.988;5.910;2022-11-15T16:55:19;131.70;;;101.88;;
47513;SDS011;33951;51.988;5.910;2022-11-15T16:57:45;14.02;;;6.93;;
47513;SDS011;33951;51.988;5.910;2022-11-15T17:00:11;9.38;;;3.13;;
47513;SDS011;33951;51.988;5.910;2022-11-15T17:02:40;7.30;;;2.75;;
47513;SDS011;33951;51.988;5.910;2022-11-15T17:05:10;8.07;;;2.93;;
47513;SDS011;33951;51.988;5.910;2022-11-15T17:07:35;6.05;;;2.83;;
47513;SDS011;33951;51.988;5.910;2022-11-15T17:10:01;7.85;;;3.50;;
47513;SDS011;33951;51.988;5.910;2022-11-15T17:12:27;7.80;;;3.00;;
47513;SDS011;33951;51.988;5.910;2022-11-15T17:14:54;10.13;;;4.00;;
47513;SDS011;33951;51.988;5.910;2022-11-15T17:17:21;10.18;;;3.38;;
47513;SDS011;33951;51.988;5.910;2022-11-15T17:19:46;8.00;;;3.60;;
47513;SDS011;33951;51.988;5.910;2022-11-15T17:22:12;7.97;;;3.22;;
47513;SDS011;33951;51.988;5.910;2022-11-15T17:24:38;12.98;;;4.07;;
47513;SDS011;33951;51.988;5.910;2022-11-15T17:27:03;5.95;;;3.45;;
47513;SDS011;33951;51.988;5.910;2022-11-15T17:29:29;5.30;;;2.88;;
47513;SDS011;33951;51.988;5.910;2022-11-15T17:34:56;8.88;;;2.90;;
47513;SDS011;33951;51.988;5.910;2022-11-15T17:37:22;7.03;;;3.70;;
47513;SDS011;33951;51.988;5.910;2022-11-15T17:40:08;7.82;;;3.53;;
47513;SDS011;33951;51.988;5.910;2022-11-15T17:42:58;8.55;;;3.88;;
47513;SDS011;33951;51.988;5.910;2022-11-15T17:45:24;7.43;;;3.65;;
47513;SDS011;33951;51.988;5.910;2022-11-15T17:47:49;7.07;;;3.92;;
47513;SDS011;33951;51.988;5.910;2022-11-15T17:50:16;5.22;;;4.03;;
47513;SDS011;33951;51.988;5.910;2022-11-15T17:52:42;9.32;;;5.07;;
47513;SDS011;33951;51.988;5.910;2022-11-15T17:55:07;7.93;;;4.20;;
47513;SDS011;33951;51.988;5.910;2022-11-15T17:57:33;9.27;;;4.80;;
47513;SDS011;33951;51.988;5.910;2022-11-15T17:59:59;7.97;;;5.65;;
47513;SDS011;33951;51.988;5.910;2022-11-15T18:02:24;9.90;;;4.97;;
47513;SDS011;33951;51.988;5.910;2022-11-15T18:04:50;9.30;;;4.72;;
47513;SDS011;33951;51.988;5.910;2022-11-15T18:07:15;10.48;;;5.13;;
47513;SDS011;33951;51.988;5.910;2022-11-15T18:09:41;8.57;;;4.78;;
47513;SDS011;33951;51.988;5.910;2022-11-15T18:12:08;10.07;;;4.70;;
47513;SDS011;33951;51.988;5.910;2022-11-15T18:14:34;9.85;;;5.57;;
47513;SDS011;33951;51.988;5.910;2022-11-15T18:17:00;8.15;;;5.00;;
47513;SDS011;33951;51.988;5.910;2022-11-15T18:19:25;8.38;;;5.13;;
47513;SDS011;33951;51.988;5.910;2022-11-15T18:21:51;9.15;;;4.45;;
47513;SDS011;33951;51.988;5.910;2022-11-15T18:24:28;10.07;;;5.25;;
47513;SDS011;33951;51.988;5.910;2022-11-15T18:26:59;9.13;;;5.53;;
47513;SDS011;33951;51.988;5.910;2022-11-15T18:29:26;10.48;;;5.95;;
47513;SDS011;33951;51.988;5.910;2022-11-15T18:31:52;8.02;;;5.50;;
47513;SDS011;33951;51.988;5.910;2022-11-15T18:34:20;8.27;;;5.57;;
47513;SDS011;33951;51.988;5.910;2022-11-15T18:36:48;8.18;;;5.70;;
47513;SDS011;33951;51.988;5.910;2022-11-15T18:39:15;8.27;;;5.85;;
47513;SDS011;33951;51.988;5.910;2022-11-15T18:41:41;9.65;;;6.47;;
47513;SDS011;33951;51.988;5.910;2022-11-15T18:44:08;10.93;;;5.65;;
47513;SDS011;33951;51.988;5.910;2022-11-15T18:46:34;13.77;;;6.57;;
47513;SDS011;33951;51.988;5.910;2022-11-15T18:49:00;8.57;;;6.40;;
47513;SDS011;33951;51.988;5.910;2022-11-15T18:51:27;9.60;;;5.68;;
47513;SDS011;33951;51.988;5.910;2022-11-15T18:53:56;8.10;;;6.32;;
47513;SDS011;33951;51.988;5.910;2022-11-15T18:56:23;10.15;;;6.50;;
47513;SDS011;33951;51.988;5.910;2022-11-15T18:58:52;9.40;;;6.55;;
47513;SDS011;33951;51.988;5.910;2022-11-15T19:01:20;10.85;;;6.03;;
47513;SDS011;33951;51.988;5.910;2022-11-15T19:03:52;9.52;;;6.95;;
47513;SDS011;33951;51.988;5.910;2022-11-15T19:06:23;9.85;;;6.93;;
47513;SDS011;33951;51.988;5.910;2022-11-15T19:08:52;11.68;;;7.40;;
47513;SDS011;33951;51.988;5.910;2022-11-15T19:11:20;9.43;;;6.82;;
47513;SDS011;33951;51.988;5.910;2022-11-15T19:13:59;10.85;;;7.93;;
47513;SDS011;33951;51.988;5.910;2022-11-15T19:16:30;14.68;;;7.13;;
47513;SDS011;33951;51.988;5.910;2022-11-15T19:18:58;15.48;;;9.70;;
47513;SDS011;33951;51.988;5.910;2022-11-15T19:21:25;17.17;;;8.90;;
47513;SDS011;33951;51.988;5.910;2022-11-15T19:23:52;11.15;;;7.45;;
47513;SDS011;33951;51.988;5.910;2022-11-15T19:26:18;12.82;;;8.20;;
47513;SDS011;33951;51.988;5.910;2022-11-15T19:28:48;10.23;;;6.97;;
47513;SDS011;33951;51.988;5.910;2022-11-15T19:31:18;10.43;;;6.60;;
47513;SDS011;33951;51.988;5.910;2022-11-15T19:33:45;14.43;;;8.05;;
47513;SDS011;33951;51.988;5.910;2022-11-15T19:36:12;15.40;;;11.40;;
47513;SDS011;33951;51.988;5.910;2022-11-15T19:38:45;10.00;;;6.78;;
47513;SDS011;33951;51.988;5.910;2022-11-15T19:41:12;9.38;;;7.18;;
47513;SDS011;33951;51.988;5.910;2022-11-15T19:43:42;13.27;;;7.80;;
47513;SDS011;33951;51.988;5.910;2022-11-15T19:46:09;12.77;;;7.60;;
47513;SDS011;33951;51.988;5.910;2022-11-15T19:48:36;7.95;;;6.35;;
47513;SDS011;33951;51.988;5.910;2022-11-15T19:51:02;28.48;;;19.42;;
47513;SDS011;33951;51.988;5.910;2022-11-15T19:53:34;9.50;;;8.10;;
47513;SDS011;33951;51.988;5.910;2022-11-15T19:56:00;12.43;;;7.80;;
47513;SDS011;33951;51.988;5.910;2022-11-15T19:58:36;11.45;;;7.10;;
47513;SDS011;33951;51.988;5.910;2022-11-15T20:01:13;10.27;;;7.90;;
47513;SDS011;33951;51.988;5.910;2022-11-15T20:03:56;10.70;;;7.25;;
47513;SDS011;33951;51.988;5.910;2022-11-15T20:06:27;10.02;;;6.90;;
47513;SDS011;33951;51.988;5.910;2022-11-15T20:08:54;8.60;;;6.35;;
47513;SDS011;33951;51.988;5.910;2022-11-15T20:11:20;9.13;;;6.82;;
47513;SDS011;33951;51.988;5.910;2022-11-15T20:13:46;8.07;;;5.85;;
47513;SDS011;33951;51.988;5.910;2022-11-15T20:16:19;37.17;;;25.75;;
47513;SDS011;33951;51.988;5.910;2022-11-15T20:18:46;8.65;;;7.47;;
47513;SDS011;33951;51.988;5.910;2022-11-15T20:21:13;7.78;;;6.80;;
47513;SDS011;33951;51.988;5.910;2022-11-15T20:23:39;9.65;;;7.13;;
47513;SDS011;33951;51.988;5.910;2022-11-15T20:26:04;8.23;;;6.82;;
47513;SDS011;33951;51.988;5.910;2022-11-15T20:28:31;8.82;;;6.95;;
47513;SDS011;33951;51.988;5.910;2022-11-15T20:30:58;8.63;;;7.72;;
47513;SDS011;33951;51.988;5.910;2022-11-15T20:33:24;10.05;;;7.43;;
47513;SDS011;33951;51.988;5.910;2022-11-15T20:35:50;10.48;;;7.40;;
47513;SDS011;33951;51.988;5.910;2022-11-15T20:38:16;10.48;;;8.80;;
47513;SDS011;33951;51.988;5.910;2022-11-15T20:40:43;10.50;;;8.00;;
47513;SDS011;33951;51.988;5.910;2022-11-15T20:43:11;10.55;;;7.75;;
47513;SDS011;33951;51.988;5.910;2022-11-15T20:45:38;10.13;;;8.43;;
47513;SDS011;33951;51.988;5.910;2022-11-15T20:48:06;13.05;;;8.65;;
47513;SDS011;33951;51.988;5.910;2022-11-15T20:50:33;12.52;;;7.68;;
47513;SDS011;33951;51.988;5.910;2022-11-15T20:52:58;10.63;;;8.75;;
47513;SDS011;33951;51.988;5.910;2022-11-15T20:55:24;14.52;;;9.60;;
47513;SDS011;33951;51.988;5.910;2022-11-15T20:57:50;16.58;;;10.20;;
47513;SDS011;33951;51.988;5.910;2022-11-15T21:00:34;11.73;;;8.85;;
47513;SDS011;33951;51.988;5.910;2022-11-15T21:03:01;12.15;;;9.25;;
47513;SDS011;33951;51.988;5.910;2022-11-15T21:05:30;12.40;;;10.02;;
47513;SDS011;33951;51.988;5.910;2022-11-15T21:07:57;12.68;;;10.57;;
47513;SDS011;33951;51.988;5.910;2022-11-15T21:10:23;24.50;;;16.45;;
47513;SDS011;33951;51.988;5.910;2022-11-15T21:13:07;25.42;;;17.13;;
47513;SDS011;33951;51.988;5.910;2022-11-15T21:15:36;18.27;;;13.65;;
47513;SDS011;33951;51.988;5.910;2022-11-15T21:18:07;19.98;;;14.48;;
47513;SDS011;33951;51.988;5.910;2022-11-15T21:20:35;18.60;;;14.52;;
47513;SDS011;33951;51.988;5.910;2022-11-15T21:23:06;22.85;;;16.50;;
47513;SDS011;33951;51.988;5.910;2022-11-15T21:25:35;20.42;;;17.17;;
47513;SDS011;33951;51.988;5.910;2022-11-15T21:28:01;18.80;;;14.00;;
47513;SDS011;33951;51.988;5.910;2022-11-15T21:30:27;19.52;;;15.27;;
47513;SDS011;33951;51.988;5.910;2022-11-15T21:32:52;21.60;;;16.27;;
47513;SDS011;33951;51.988;5.910;2022-11-15T21:35:18;21.80;;;15.30;;
47513;SDS011;33951;51.988;5.910;2022-11-15T21:37:43;17.98;;;15.77;;
47513;SDS011;33951;51.988;5.910;2022-11-15T21:40:09;22.80;;;17.08;;
47513;SDS011;33951;51.988;5.910;2022-11-15T21:42:35;19.70;;;16.88;;